createdAt,value
2019-06-20T00:02:53.121Z,23.40
2019-06-20T00:06:03.981Z,23.40
2019-06-20T00:08:43.156Z,23.40
2019-06-20T00:11:41.505Z,23.40
2019-06-20T00:14:57.068Z,23.40
2019-06-20T00:17:37.885Z,23.40
2019-06-20T00:20:33.182Z,23.40
2019-06-20T00:26:56.535Z,23.30
2019-06-20T00:30:34.717Z,23.30
2019-06-20T00:33:06.460Z,23.30
2019-06-20T00:35:39.620Z,23.20
2019-06-20T00:38:12.539Z,23.30
2019-06-20T00:40:42.953Z,23.20
2019-06-20T00:43:17.999Z,23.20
2019-06-20T00:45:49.432Z,23.10
2019-06-20T00:48:21.023Z,23.10
2019-06-20T00:50:52.588Z,23.10
2019-06-20T00:53:24.195Z,23.00
2019-06-20T00:55:58.088Z,23.00
2019-06-20T00:58:34.521Z,23.00
2019-06-20T01:01:06.956Z,23.00
2019-06-20T01:03:38.603Z,22.90
2019-06-20T01:06:10.352Z,22.90
2019-06-20T01:08:42.509Z,22.90
2019-06-20T01:11:15.558Z,22.90
2019-06-20T01:13:47.878Z,22.80
2019-06-20T01:16:20.512Z,22.80
2019-06-20T01:18:52.395Z,22.80
2019-06-20T01:21:24.281Z,22.80
2019-06-20T01:23:56.348Z,22.80
2019-06-20T01:26:28.809Z,22.80
2019-06-20T01:29:00.534Z,22.80
2019-06-20T01:31:32.071Z,22.70
2019-06-20T01:34:03.592Z,22.70
2019-06-20T01:36:38.959Z,22.70
2019-06-20T01:39:10.659Z,22.70
2019-06-20T01:41:42.270Z,22.70
2019-06-20T01:44:14.424Z,22.70
2019-06-20T01:46:48.138Z,22.60
2019-06-20T01:49:21.498Z,22.60
2019-06-20T01:51:56.333Z,22.60
2019-06-20T01:54:29.214Z,22.70
2019-06-20T01:57:05.022Z,22.60
2019-06-20T01:59:37.073Z,22.70
2019-06-20T02:02:08.796Z,22.70
2019-06-20T02:04:40.558Z,22.70
2019-06-20T02:07:12.206Z,22.70
2019-06-20T02:09:44.736Z,22.70
2019-06-20T02:12:16.560Z,22.70
2019-06-20T02:14:48.237Z,22.70
2019-06-20T02:17:20.094Z,22.70
2019-06-20T02:19:52.219Z,22.70
2019-06-20T02:22:23.817Z,22.60
2019-06-20T02:24:55.770Z,22.60
2019-06-20T02:27:28.755Z,22.60
2019-06-20T02:29:59.191Z,22.60
2019-06-20T02:32:30.970Z,22.50
2019-06-20T02:35:03.722Z,22.50
2019-06-20T02:37:39.394Z,22.40
2019-06-20T02:40:11.865Z,22.50
2019-06-20T02:42:43.404Z,22.50
2019-06-20T02:45:16.341Z,22.40
2019-06-20T02:47:50.580Z,22.40
2019-06-20T02:50:22.940Z,22.40
2019-06-20T02:52:55.464Z,22.40
2019-06-20T02:55:29.476Z,22.40
2019-06-20T02:58:02.527Z,22.40
2019-06-20T03:00:49.107Z,22.40
2019-06-20T03:03:20.634Z,22.40
2019-06-20T03:05:52.393Z,22.40
2019-06-20T03:08:23.942Z,22.40
2019-06-20T03:10:55.401Z,22.40
2019-06-20T03:13:26.897Z,22.40
2019-06-20T03:15:59.433Z,22.30
2019-06-20T03:18:31.628Z,22.30
2019-06-20T03:21:03.507Z,22.30
2019-06-20T03:23:37.886Z,22.30
2019-06-20T03:26:10.516Z,22.30
2019-06-20T03:28:42.313Z,22.30
2019-06-20T03:31:17.099Z,22.30
2019-06-20T03:33:48.572Z,22.30
2019-06-20T03:36:20.057Z,22.30
2019-06-20T03:38:52.617Z,22.30
2019-06-20T03:41:26.263Z,22.20
2019-06-20T03:43:59.095Z,22.10
2019-06-20T03:46:30.721Z,22.00
2019-06-20T03:49:02.242Z,22.00
2019-06-20T03:51:34.073Z,22.00
2019-06-20T03:54:06.091Z,22.00
2019-06-20T03:56:39.327Z,22.00
2019-06-20T03:59:09.998Z,22.00
2019-06-20T04:01:41.317Z,22.00
2019-06-20T04:04:13.373Z,22.00
2019-06-20T04:06:44.826Z,22.00
2019-06-20T04:09:16.958Z,22.00
2019-06-20T04:11:48.619Z,22.00
2019-06-20T04:14:20.522Z,22.00
2019-06-20T04:16:52.049Z,21.90
2019-06-20T04:19:24.862Z,22.00
2019-06-20T04:21:57.596Z,22.00
2019-06-20T04:24:29.665Z,21.90
2019-06-20T04:27:01.142Z,21.90
2019-06-20T04:29:35.847Z,21.90
2019-06-20T04:32:06.550Z,21.90
2019-06-20T04:34:38.662Z,21.90
2019-06-20T04:37:10.406Z,21.90
2019-06-20T04:39:42.349Z,21.90
2019-06-20T04:42:14.112Z,21.90
2019-06-20T04:44:45.686Z,21.90
2019-06-20T04:47:18.462Z,21.90
2019-06-20T04:49:50.445Z,21.90
2019-06-20T04:52:22.084Z,21.90
2019-06-20T04:54:53.971Z,21.90
2019-06-20T04:57:25.629Z,21.90
2019-06-20T05:00:03.247Z,21.90
2019-06-20T05:02:35.085Z,21.90
2019-06-20T05:05:07.571Z,21.90
2019-06-20T05:07:43.745Z,21.90
2019-06-20T05:10:15.787Z,21.90
2019-06-20T05:12:48.003Z,21.90
2019-06-20T05:15:20.604Z,21.90
2019-06-20T05:17:56.400Z,21.90
2019-06-20T05:20:28.976Z,21.90
2019-06-20T05:23:00.423Z,21.90
2019-06-20T05:25:32.334Z,21.90
2019-06-20T05:28:03.867Z,21.90
2019-06-20T05:30:36.200Z,22.00
2019-06-20T05:33:07.821Z,22.00
2019-06-20T05:35:39.733Z,21.90
2019-06-20T05:38:13.248Z,22.00
2019-06-20T05:40:49.140Z,22.00
2019-06-20T05:43:22.298Z,22.00
2019-06-20T05:46:08.231Z,21.90
2019-06-20T05:48:28.603Z,22.00
2019-06-20T05:51:00.136Z,22.00
2019-06-20T05:53:33.517Z,22.00
2019-06-20T05:56:05.159Z,22.00
2019-06-20T05:58:37.367Z,22.00
2019-06-20T06:01:09.696Z,22.00
2019-06-20T06:03:41.581Z,21.90
2019-06-20T06:06:13.667Z,21.90
2019-06-20T06:08:47.159Z,21.90
2019-06-20T06:11:18.952Z,21.90
2019-06-20T06:13:52.070Z,21.90
2019-06-20T06:16:28.411Z,21.90
2019-06-20T06:19:03.234Z,22.00
2019-06-20T06:21:36.115Z,22.10
2019-06-20T06:24:07.642Z,22.10
2019-06-20T06:26:43.644Z,22.20
2019-06-20T06:29:16.259Z,22.20
2019-06-20T06:31:51.720Z,22.10
2019-06-20T06:34:26.711Z,22.20
2019-06-20T06:36:58.439Z,22.20
2019-06-20T06:39:30.726Z,22.20
2019-06-20T06:42:02.778Z,22.20
2019-06-20T06:44:38.452Z,22.20
2019-06-20T06:47:10.154Z,22.20
2019-06-20T06:49:43.689Z,22.30
2019-06-20T06:52:15.432Z,22.20
2019-06-20T06:54:48.146Z,22.30
2019-06-20T06:57:20.708Z,22.30
2019-06-20T06:59:55.778Z,22.30
2019-06-20T07:02:27.502Z,22.30
2019-06-20T07:04:59.489Z,22.30
2019-06-20T07:07:31.270Z,22.30
2019-06-20T07:10:06.139Z,22.30
2019-06-20T07:12:41.260Z,22.30
2019-06-20T07:15:14.869Z,22.30
2019-06-20T07:17:46.956Z,22.40
2019-06-20T07:20:18.687Z,22.40
2019-06-20T07:22:50.742Z,22.40
2019-06-20T07:25:24.019Z,22.50
2019-06-20T07:27:55.979Z,22.50
2019-06-20T07:30:29.774Z,22.50
2019-06-20T07:33:02.364Z,22.50
2019-06-20T07:35:33.959Z,22.60
2019-06-20T07:38:05.837Z,22.60
2019-06-20T07:40:37.990Z,22.60
2019-06-20T07:43:13.979Z,22.60
2019-06-20T07:46:01.489Z,22.50
2019-06-20T07:48:21.107Z,22.50
2019-06-20T07:50:53.899Z,22.50
2019-06-20T07:53:30.097Z,22.50
2019-06-20T07:56:12.891Z,22.50
2019-06-20T07:58:46.090Z,22.60
2019-06-20T08:01:18.195Z,22.60
2019-06-20T08:03:55.442Z,22.60
2019-06-20T08:06:27.123Z,22.70
2019-06-20T08:09:04.883Z,22.70
2019-06-20T08:11:37.929Z,22.70
2019-06-20T08:14:11.715Z,22.70
2019-06-20T08:16:43.837Z,22.70
2019-06-20T08:19:19.093Z,22.70
2019-06-20T08:21:54.341Z,22.70
2019-06-20T08:24:29.418Z,22.60
2019-06-20T08:27:03.252Z,22.60
2019-06-20T08:29:40.035Z,22.50
2019-06-20T08:32:13.253Z,22.50
2019-06-20T08:34:45.051Z,22.50
2019-06-20T08:37:19.210Z,22.60
2019-06-20T08:39:51.455Z,22.60
2019-06-20T08:42:24.379Z,22.60
2019-06-20T08:44:57.871Z,22.70
2019-06-20T08:47:30.042Z,22.80
2019-06-20T08:50:02.040Z,22.80
2019-06-20T08:52:34.067Z,22.80
2019-06-20T08:55:08.072Z,22.80
2019-06-20T08:57:46.122Z,22.80
2019-06-20T09:00:20.394Z,22.90
2019-06-20T09:02:55.011Z,22.90
2019-06-20T09:05:36.187Z,23.00
2019-06-20T09:08:12.254Z,23.00
2019-06-20T09:10:48.700Z,23.10
2019-06-20T09:13:24.841Z,23.10
2019-06-20T09:16:04.117Z,23.10
2019-06-20T09:18:42.629Z,23.10
2019-06-20T09:21:16.692Z,23.10
2019-06-20T09:23:52.385Z,23.10
2019-06-20T09:26:24.650Z,23.10
2019-06-20T09:28:59.406Z,23.20
2019-06-20T09:31:37.610Z,23.20
2019-06-20T09:34:17.561Z,23.30
2019-06-20T09:36:55.125Z,23.40
2019-06-20T09:39:44.184Z,23.40
2019-06-20T09:42:24.160Z,23.40
2019-06-20T09:45:06.555Z,23.30
2019-06-20T09:47:45.024Z,23.30
2019-06-20T09:50:21.336Z,23.40
2019-06-20T09:53:11.042Z,23.40
2019-06-20T09:55:51.729Z,23.50
2019-06-20T09:58:33.505Z,23.60
2019-06-20T10:01:22.864Z,23.70
2019-06-20T10:04:05.871Z,23.80
2019-06-20T10:06:43.911Z,23.90
2019-06-20T10:09:21.612Z,23.90
2019-06-20T10:11:58.616Z,24.00
2019-06-20T10:14:33.549Z,24.00
2019-06-20T10:17:10.586Z,23.80
2019-06-20T10:19:46.735Z,23.80
2019-06-20T10:22:23.947Z,23.70
2019-06-20T10:24:58.429Z,23.70
2019-06-20T10:27:37.761Z,23.70
2019-06-20T10:30:18.139Z,23.80
2019-06-20T10:32:58.539Z,23.90
2019-06-20T10:35:48.435Z,23.90
2019-06-20T10:38:24.449Z,24.00
2019-06-20T10:41:02.342Z,24.00
2019-06-20T10:43:43.247Z,24.10
2019-06-20T10:46:31.956Z,24.00
2019-06-20T10:49:38.079Z,24.00
2019-06-20T10:52:17.808Z,24.00
2019-06-20T10:54:57.911Z,23.90
2019-06-20T10:57:32.448Z,23.80
2019-06-20T11:00:08.429Z,23.80
2019-06-20T11:02:41.852Z,23.80
2019-06-20T11:05:28.047Z,23.70
2019-06-20T11:08:08.766Z,23.80
2019-06-20T11:10:45.074Z,23.70
2019-06-20T11:13:23.188Z,23.80
2019-06-20T11:15:56.735Z,23.80
2019-06-20T11:18:30.064Z,23.90
2019-06-20T11:21:04.752Z,23.90
2019-06-20T11:23:40.926Z,24.00
2019-06-20T11:26:15.447Z,24.00
2019-06-20T11:28:50.564Z,24.10
2019-06-20T11:31:37.513Z,24.20
2019-06-20T11:34:13.237Z,24.30
2019-06-20T11:36:55.236Z,24.30
2019-06-20T11:39:47.414Z,24.40
2019-06-20T11:42:34.688Z,24.50
2019-06-20T11:45:21.879Z,24.50
2019-06-20T11:48:07.851Z,24.40
2019-06-20T11:50:44.279Z,24.30
2019-06-20T11:57:33.582Z,24.10
2019-06-20T12:00:20.591Z,24.20
2019-06-20T12:02:59.358Z,24.30
2019-06-20T12:05:51.569Z,24.20
2019-06-20T12:08:42.418Z,24.10
2019-06-20T12:11:20.978Z,24.30
2019-06-20T12:14:00.507Z,24.60
2019-06-20T12:16:40.493Z,24.70
2019-06-20T12:19:46.678Z,24.80
2019-06-20T12:22:46.643Z,24.80
2019-06-20T12:25:21.587Z,24.60
2019-06-20T12:27:59.464Z,24.40
2019-06-20T12:30:38.452Z,24.10
2019-06-20T14:34:02.230Z,22.10
